createdAt,value
2018-06-22T00:01:04.026Z,12.70
2018-06-22T00:03:32.038Z,12.70
2018-06-22T00:06:00.035Z,12.80
2018-06-22T00:08:28.026Z,12.80
2018-06-22T00:10:56.042Z,12.90
2018-06-22T00:13:24.077Z,12.70
2018-06-22T00:15:52.082Z,12.60
2018-06-22T00:18:20.082Z,12.50
2018-06-22T00:20:48.110Z,12.60
2018-06-22T00:23:16.230Z,12.50
2018-06-22T00:25:44.258Z,12.50
2018-06-22T00:28:12.264Z,12.50
2018-06-22T00:30:40.259Z,12.50
2018-06-22T00:35:36.118Z,12.60
2018-06-22T00:38:04.143Z,12.60
2018-06-22T00:40:32.178Z,12.60
2018-06-22T00:43:00.164Z,12.60
2018-06-22T00:45:28.175Z,12.50
2018-06-22T00:50:24.049Z,12.40
2018-06-22T00:52:52.057Z,12.50
2018-06-22T00:55:20.088Z,12.50
2018-06-22T00:57:48.097Z,12.40
2018-06-22T01:00:16.117Z,12.40
2018-06-22T01:02:44.112Z,12.30
2018-06-22T01:05:12.115Z,12.20
2018-06-22T01:07:40.121Z,12.10
2018-06-22T01:10:08.128Z,12.10
2018-06-22T01:12:36.187Z,12.10
2018-06-22T01:15:04.167Z,12.00
2018-06-22T01:17:32.758Z,12.00
2018-06-22T01:20:00.803Z,12.00
2018-06-22T01:22:28.840Z,12.00
2018-06-22T01:24:56.876Z,12.00
2018-06-22T01:27:24.872Z,11.90
2018-06-22T01:29:52.926Z,11.90
2018-06-22T01:32:20.920Z,11.90
2018-06-22T01:34:48.955Z,11.80
2018-06-22T01:37:16.953Z,11.80
2018-06-22T01:39:44.957Z,11.70
2018-06-22T01:42:13.056Z,11.80
2018-06-22T01:44:41.132Z,11.80
2018-06-22T01:47:09.119Z,11.80
2018-06-22T01:49:37.127Z,11.70
2018-06-22T01:52:05.243Z,11.70
2018-06-22T01:54:33.243Z,11.70
2018-06-22T01:57:01.231Z,11.70
2018-06-22T01:59:29.231Z,11.70
2018-06-22T02:01:57.242Z,11.70
2018-06-22T02:04:25.267Z,11.80
2018-06-22T02:06:53.285Z,11.70
2018-06-22T02:09:21.318Z,11.60
2018-06-22T02:11:49.322Z,11.60
2018-06-22T02:14:17.395Z,11.60
2018-06-22T02:16:45.403Z,11.60
2018-06-22T02:19:13.395Z,11.60
2018-06-22T02:21:41.388Z,11.60
2018-06-22T02:24:09.392Z,11.60
2018-06-22T02:26:37.379Z,11.60
2018-06-22T02:29:05.665Z,11.60
2018-06-22T02:31:33.664Z,11.60
2018-06-22T02:34:01.735Z,11.60
2018-06-22T02:36:29.724Z,11.60
2018-06-22T02:38:57.716Z,11.50
2018-06-22T02:41:25.708Z,11.50
2018-06-22T02:43:53.720Z,11.50
2018-06-22T02:46:21.736Z,11.50
2018-06-22T02:48:49.741Z,11.50
2018-06-22T02:51:17.818Z,11.50
2018-06-22T02:53:45.904Z,11.70
2018-06-22T02:56:13.922Z,11.60
2018-06-22T02:58:41.912Z,11.60
2018-06-22T03:01:09.916Z,11.70
2018-06-22T03:03:37.904Z,11.60
2018-06-22T03:06:05.904Z,11.70
2018-06-22T03:08:33.923Z,11.60
2018-06-22T03:11:01.980Z,11.60
2018-06-22T03:13:29.964Z,11.60
2018-06-22T03:15:58.013Z,11.60
2018-06-22T03:18:26.033Z,11.50
2018-06-22T03:20:54.037Z,11.60
2018-06-22T03:23:22.101Z,11.70
2018-06-22T03:25:50.103Z,11.70
2018-06-22T03:28:18.147Z,11.70
2018-06-22T03:30:46.145Z,11.70
2018-06-22T03:33:14.184Z,11.80
2018-06-22T03:35:42.151Z,11.80
2018-06-22T03:38:10.164Z,11.80
2018-06-22T03:40:38.171Z,11.80
2018-06-22T03:43:06.241Z,11.80
2018-06-22T03:45:34.236Z,11.80
2018-06-22T03:48:02.269Z,11.90
2018-06-22T03:50:30.283Z,11.80
2018-06-22T03:52:58.463Z,11.90
2018-06-22T03:55:26.484Z,11.90
2018-06-22T03:57:54.605Z,11.80
2018-06-22T04:00:22.651Z,11.80
2018-06-22T04:02:50.715Z,11.80
2018-06-22T04:05:18.724Z,11.90
2018-06-22T04:07:46.704Z,11.90
2018-06-22T04:10:14.750Z,11.90
2018-06-22T04:12:42.822Z,11.90
2018-06-22T04:15:10.844Z,11.90
2018-06-22T04:17:43.339Z,11.90
2018-06-22T04:20:11.362Z,12.00
2018-06-22T04:22:39.347Z,12.00
2018-06-22T04:25:07.375Z,11.90
2018-06-22T04:27:35.375Z,12.00
2018-06-22T04:30:03.413Z,12.00
2018-06-22T04:32:31.391Z,12.00
2018-06-22T04:34:59.384Z,12.00
2018-06-22T04:37:27.399Z,12.00
2018-06-22T04:39:55.444Z,12.00
2018-06-22T04:42:23.460Z,12.10
2018-06-22T04:44:51.451Z,12.20
2018-06-22T04:47:19.437Z,12.20
2018-06-22T04:49:47.472Z,12.30
2018-06-22T04:52:15.477Z,12.10
2018-06-22T04:54:43.521Z,12.10
2018-06-22T04:57:11.516Z,12.20
2018-06-22T04:59:39.548Z,12.20
2018-06-22T05:02:07.552Z,12.20
2018-06-22T05:04:35.624Z,12.20
2018-06-22T05:07:03.655Z,12.20
2018-06-22T05:09:31.660Z,12.20
2018-06-22T05:11:59.751Z,12.30
2018-06-22T05:14:27.755Z,12.20
2018-06-22T05:16:55.747Z,12.20
2018-06-22T05:19:23.754Z,12.20
2018-06-22T05:21:51.804Z,12.20
2018-06-22T05:26:54.554Z,12.10
2018-06-22T05:29:22.572Z,12.10
2018-06-22T05:31:50.553Z,12.20
2018-06-22T05:34:18.579Z,12.20
2018-06-22T05:36:46.567Z,12.30
2018-06-22T05:41:42.409Z,12.50
2018-06-22T05:46:38.680Z,12.70
2018-06-22T05:49:06.730Z,12.80
2018-06-22T05:51:34.871Z,12.90
2018-06-22T05:54:02.865Z,12.80
2018-06-22T05:56:30.912Z,12.80
2018-06-22T05:58:58.932Z,12.70
2018-06-22T06:01:27.104Z,12.80
2018-06-22T06:03:55.114Z,12.70
2018-06-22T06:06:23.104Z,12.80
2018-06-22T06:08:51.088Z,12.80
2018-06-22T06:11:19.081Z,12.70
2018-06-22T06:13:47.080Z,12.80
2018-06-22T06:16:15.101Z,12.80
2018-06-22T06:18:43.092Z,12.80
2018-06-22T06:21:11.223Z,12.90
2018-06-22T06:23:39.235Z,12.90
2018-06-22T06:26:07.251Z,12.90
2018-06-22T06:28:35.232Z,12.90
2018-06-22T06:31:03.251Z,12.90
2018-06-22T06:33:31.327Z,12.90
2018-06-22T06:35:59.359Z,12.90
2018-06-22T06:38:27.356Z,13.00
2018-06-22T06:40:55.339Z,13.10
2018-06-22T06:43:23.354Z,13.20
2018-06-22T06:45:51.350Z,13.10
2018-06-22T06:48:19.355Z,13.10
2018-06-22T06:50:47.387Z,13.10
2018-06-22T06:53:15.399Z,13.10
2018-06-22T06:55:43.400Z,13.30
2018-06-22T06:58:11.419Z,13.40
2018-06-22T07:00:39.411Z,13.30
2018-06-22T07:03:07.516Z,13.30
2018-06-22T07:05:35.514Z,13.40
2018-06-22T07:08:03.515Z,13.40
2018-06-22T07:10:31.705Z,13.40
2018-06-22T07:12:59.715Z,13.40
2018-06-22T07:15:27.715Z,13.50
2018-06-22T07:17:55.730Z,13.40
2018-06-22T07:22:51.670Z,13.10
2018-06-22T07:25:19.663Z,12.90
2018-06-22T07:27:47.695Z,13.00
2018-06-22T07:30:15.704Z,13.00
2018-06-22T07:32:43.744Z,13.10
2018-06-22T07:35:11.744Z,13.20
2018-06-22T07:37:39.845Z,13.50
2018-06-22T07:40:07.939Z,13.60
2018-06-22T07:42:35.972Z,13.50
2018-06-22T07:45:03.971Z,13.40
2018-06-22T07:47:32.005Z,13.30
2018-06-22T07:50:00.016Z,13.30
2018-06-22T07:52:28.041Z,13.20
2018-06-22T07:54:56.032Z,13.20
2018-06-22T07:57:24.032Z,13.30
2018-06-22T08:02:19.965Z,13.30
2018-06-22T08:04:47.995Z,13.30
2018-06-22T08:07:15.992Z,13.40
2018-06-22T08:09:44.028Z,13.60
2018-06-22T08:12:12.033Z,13.70
2018-06-22T08:14:40.080Z,13.80
2018-06-22T08:17:08.079Z,13.80
2018-06-22T08:19:36.171Z,13.70
2018-06-22T08:22:04.179Z,13.70
2018-06-22T08:24:32.241Z,13.70
2018-06-22T08:27:00.268Z,13.70
2018-06-22T08:29:28.387Z,13.70
2018-06-22T08:31:56.396Z,13.70
2018-06-22T08:34:24.411Z,13.70
2018-06-22T08:36:52.440Z,13.70
2018-06-22T08:39:20.457Z,13.80
2018-06-22T08:41:48.569Z,14.00
2018-06-22T08:44:16.559Z,14.20
2018-06-22T08:46:44.632Z,14.40
2018-06-22T08:49:12.667Z,14.50
2018-06-22T08:51:40.663Z,14.40
2018-06-22T08:54:08.732Z,14.30
2018-06-22T08:56:36.715Z,14.30
2018-06-22T08:59:04.702Z,14.20
2018-06-22T09:04:00.563Z,14.30
2018-06-22T09:06:28.592Z,14.60
2018-06-22T09:08:56.579Z,14.70
2018-06-22T09:11:24.574Z,14.80
2018-06-22T09:13:52.568Z,14.80
2018-06-22T09:16:20.663Z,14.90
2018-06-22T09:18:48.731Z,14.90
2018-06-22T09:21:16.831Z,15.10
2018-06-22T09:23:44.876Z,15.40
2018-06-22T09:26:12.859Z,15.50
2018-06-22T09:28:40.907Z,15.30
2018-06-22T09:31:08.912Z,14.50
2018-06-22T09:33:36.926Z,13.70
2018-06-22T09:36:04.940Z,13.40
2018-06-22T09:38:32.972Z,13.20
2018-06-22T09:41:00.972Z,13.20
2018-06-22T09:43:28.995Z,13.30
2018-06-22T09:45:57.012Z,13.30
2018-06-22T09:48:25.078Z,13.20
2018-06-22T09:50:53.038Z,13.30
2018-06-22T09:53:21.031Z,13.40
2018-06-22T09:55:49.168Z,13.30
2018-06-22T09:58:17.272Z,13.40
2018-06-22T10:00:50.263Z,13.40
2018-06-22T10:03:18.936Z,13.50
2018-06-22T10:05:47.161Z,13.80
2018-06-22T10:08:15.323Z,14.00
2018-06-22T10:10:43.468Z,13.90
2018-06-22T10:13:11.329Z,13.90
2018-06-22T10:15:39.334Z,14.10
2018-06-22T10:18:07.347Z,14.40
2018-06-22T10:20:35.432Z,14.80
2018-06-22T10:23:03.436Z,15.30
2018-06-22T10:25:31.481Z,15.70
2018-06-22T10:27:59.486Z,15.70
2018-06-22T10:30:27.508Z,15.90
2018-06-22T10:32:55.520Z,15.90
2018-06-22T10:35:23.547Z,16.10
2018-06-22T10:40:19.465Z,16.20
2018-06-22T10:42:47.476Z,16.40
2018-06-22T10:45:15.514Z,16.60
2018-06-22T10:47:43.514Z,16.90
2018-06-22T10:50:11.517Z,17.10
2018-06-22T10:52:39.615Z,17.30
2018-06-22T10:55:07.608Z,17.20
2018-06-22T10:57:35.628Z,17.10
2018-06-22T11:00:03.796Z,16.90
2018-06-22T11:02:31.733Z,16.80
2018-06-22T11:04:59.731Z,16.60
2018-06-22T11:07:27.716Z,16.80
2018-06-22T11:09:55.742Z,17.10
2018-06-22T11:12:23.743Z,17.40
2018-06-22T11:14:51.840Z,17.10
2018-06-22T11:17:19.874Z,16.60
2018-06-22T11:19:47.940Z,16.10
2018-06-22T11:22:15.963Z,15.50
2018-06-22T11:24:44.025Z,14.90
2018-06-22T11:27:12.012Z,14.30
2018-06-22T11:29:40.008Z,14.10
2018-06-22T11:32:08.184Z,14.10
2018-06-22T11:34:36.233Z,14.00
2018-06-22T11:37:04.481Z,13.80
2018-06-22T11:39:32.495Z,13.70
2018-06-22T11:42:00.523Z,13.80
2018-06-22T11:44:28.536Z,14.10
2018-06-22T11:46:56.584Z,14.30
2018-06-22T11:49:24.592Z,14.40
2018-06-22T11:51:52.626Z,14.40
2018-06-22T11:54:20.630Z,14.60
2018-06-22T11:56:48.656Z,14.80
2018-06-22T11:59:16.713Z,15.00
2018-06-22T12:01:44.742Z,15.30
2018-06-22T12:04:12.773Z,15.70
2018-06-22T12:06:40.776Z,16.00
2018-06-22T12:09:11.057Z,16.20
2018-06-22T12:11:39.308Z,15.80
2018-06-22T12:14:07.312Z,15.40
2018-06-22T12:16:35.329Z,15.10
2018-06-22T12:19:03.349Z,15.50
2018-06-22T12:23:59.203Z,17.00
2018-06-22T12:26:27.387Z,17.50
2018-06-22T12:28:56.436Z,17.90
2018-06-22T12:31:24.456Z,17.60
2018-06-22T12:33:52.467Z,17.40
2018-06-22T12:36:20.475Z,17.70
2018-06-22T12:38:48.525Z,18.00
2018-06-22T12:41:16.611Z,18.40
2018-06-22T12:43:44.592Z,18.70
2018-06-22T12:46:12.627Z,19.00
2018-06-22T12:51:08.651Z,18.20
2018-06-22T12:53:36.942Z,18.10
2018-06-22T12:56:05.228Z,18.40
2018-06-22T12:58:33.220Z,18.70
2018-06-22T13:01:01.300Z,19.00
2018-06-22T13:03:29.290Z,18.90
2018-06-22T13:05:57.307Z,19.20
2018-06-22T13:08:25.328Z,19.10
2018-06-22T13:10:53.526Z,19.00
2018-06-22T13:15:55.965Z,18.80
2018-06-22T13:18:23.964Z,19.20
2018-06-22T13:20:51.984Z,19.50
2018-06-22T13:23:19.988Z,19.80
2018-06-22T13:25:47.982Z,20.00
2018-06-22T13:28:15.996Z,20.00
2018-06-22T13:30:44.148Z,19.70
2018-06-22T13:33:12.203Z,19.50
2018-06-22T13:35:40.224Z,19.40
2018-06-22T13:38:08.228Z,19.20
2018-06-22T13:40:36.247Z,18.80
2018-06-22T13:43:04.250Z,18.40
2018-06-22T13:45:32.281Z,18.20
2018-06-22T13:48:00.280Z,18.20
2018-06-22T13:50:28.281Z,18.70
2018-06-22T13:52:56.302Z,19.20
2018-06-22T13:55:24.294Z,19.60
2018-06-22T13:57:52.348Z,19.90
2018-06-22T14:00:20.368Z,20.00
2018-06-22T14:02:48.384Z,19.90
2018-06-22T14:05:21.999Z,19.50
2018-06-22T14:07:50.004Z,19.40
2018-06-22T14:10:18.059Z,19.50
2018-06-22T14:12:46.085Z,19.70
2018-06-22T14:15:14.219Z,19.40
2018-06-22T14:17:42.226Z,19.20
2018-06-22T14:20:10.298Z,18.80
2018-06-22T14:22:38.272Z,18.60
2018-06-22T14:25:06.502Z,18.40
2018-06-22T14:27:34.532Z,18.30
2018-06-22T14:30:02.549Z,18.10
2018-06-22T14:32:30.673Z,18.00
2018-06-22T14:34:58.669Z,18.00
2018-06-22T14:37:26.726Z,18.00
2018-06-22T14:39:55.448Z,18.10
2018-06-22T14:42:23.452Z,18.20
2018-06-22T14:44:51.479Z,18.30
2018-06-22T14:47:19.499Z,18.30
2018-06-22T14:49:47.524Z,18.50
2018-06-22T14:52:15.551Z,18.60
2018-06-22T14:54:49.139Z,18.80
2018-06-22T14:57:22.621Z,18.90
2018-06-22T14:59:56.162Z,19.00
2018-06-22T15:02:29.631Z,18.90
2018-06-22T15:05:02.972Z,19.00
2018-06-22T15:07:36.576Z,19.00
2018-06-22T15:10:04.773Z,19.00
2018-06-22T15:12:32.777Z,19.30
2018-06-22T15:15:00.780Z,19.50
2018-06-22T15:17:28.873Z,19.40
2018-06-22T15:19:56.891Z,19.70
2018-06-22T15:22:24.902Z,20.00
2018-06-22T15:24:52.956Z,20.30
2018-06-22T15:27:20.981Z,20.40
2018-06-22T15:32:16.995Z,19.80
2018-06-22T15:34:50.399Z,19.60
2018-06-22T15:37:23.834Z,19.60
2018-06-22T15:39:57.308Z,19.90
2018-06-22T15:45:04.238Z,20.50
2018-06-22T15:47:37.827Z,20.70
2018-06-22T15:50:11.336Z,20.50
2018-06-22T15:52:44.952Z,20.30
2018-06-22T15:55:15.502Z,20.30
2018-06-22T15:57:43.513Z,20.30
2018-06-22T16:00:12.274Z,20.30
2018-06-22T16:02:45.667Z,20.50
2018-06-22T16:05:13.844Z,20.80
2018-06-22T16:10:09.660Z,20.80
2018-06-22T16:12:39.169Z,20.80
2018-06-22T16:15:13.961Z,20.50
2018-06-22T16:17:47.546Z,20.30
2018-06-22T16:20:21.075Z,20.20
2018-06-22T16:23:52.283Z,20.30
2018-06-22T16:26:25.750Z,20.30
2018-06-22T16:28:53.735Z,20.60
2018-06-22T16:31:22.259Z,20.70
2018-06-22T16:33:54.673Z,20.70
2018-06-22T16:36:22.660Z,20.50
2018-06-22T16:38:50.721Z,20.30
2018-06-22T16:41:18.739Z,20.10
2018-06-22T16:43:46.750Z,19.80
2018-06-22T16:46:14.771Z,19.50
2018-06-22T16:48:42.794Z,19.40
2018-06-22T16:51:10.836Z,19.70
2018-06-22T16:53:38.882Z,19.80
2018-06-22T16:56:06.880Z,19.80
2018-06-22T16:58:38.348Z,19.70
2018-06-22T17:03:35.034Z,19.50
2018-06-22T17:06:03.105Z,19.40
2018-06-22T17:08:36.661Z,19.30
2018-06-22T17:11:10.229Z,19.20
2018-06-22T17:13:43.783Z,19.10
2018-06-22T17:16:17.353Z,19.10
2018-06-22T17:18:57.124Z,19.10
2018-06-22T17:21:25.156Z,19.10
2018-06-22T17:23:53.561Z,19.00
2018-06-22T17:26:21.639Z,18.90
2018-06-22T17:28:49.649Z,18.90
2018-06-22T17:31:17.698Z,19.00
2018-06-22T17:33:45.811Z,19.00
2018-06-22T17:36:13.935Z,18.80
2018-06-22T17:38:42.274Z,18.80
2018-06-22T17:41:10.308Z,18.80
2018-06-22T17:43:38.431Z,18.80
2018-06-22T17:46:06.630Z,18.80
2018-06-22T17:48:34.576Z,18.80
2018-06-22T17:51:02.560Z,18.70
2018-06-22T17:53:30.632Z,18.60
2018-06-22T17:55:58.788Z,18.60
2018-06-22T17:58:26.861Z,18.50
2018-06-22T18:01:00.328Z,18.50
2018-06-22T18:03:33.755Z,18.50
2018-06-22T18:06:07.241Z,18.40
2018-06-22T18:08:40.872Z,18.50
2018-06-22T18:11:14.393Z,18.50
2018-06-22T18:13:42.451Z,18.50
2018-06-22T18:16:10.451Z,18.40
2018-06-22T18:18:38.514Z,18.20
2018-06-22T18:21:06.509Z,18.10
2018-06-22T18:23:34.521Z,17.90
2018-06-22T18:26:02.580Z,17.90
2018-06-22T18:28:30.655Z,17.80
2018-06-22T18:30:58.727Z,17.80
2018-06-22T18:33:26.755Z,17.80
2018-06-22T18:35:54.765Z,17.80
2018-06-22T18:38:22.792Z,17.80
2018-06-22T18:40:50.805Z,17.80
2018-06-22T18:43:24.247Z,17.70
2018-06-22T18:45:52.283Z,17.70
2018-06-22T18:48:20.311Z,17.70
2018-06-22T18:50:48.307Z,17.70
2018-06-22T18:53:21.871Z,17.60
2018-06-22T18:55:55.363Z,17.60
2018-06-22T18:58:28.959Z,17.60
2018-06-22T19:01:02.559Z,17.60
2018-06-22T19:03:36.115Z,17.50
2018-06-22T19:06:04.376Z,17.50
2018-06-22T19:08:32.447Z,17.40
2018-06-22T19:11:00.471Z,17.20
2018-06-22T19:13:28.493Z,17.10
2018-06-22T19:15:56.509Z,17.00
2018-06-22T19:18:24.499Z,17.00
2018-06-22T19:20:52.528Z,17.10
2018-06-22T19:23:20.535Z,17.00
2018-06-22T19:25:48.551Z,17.00
2018-06-22T19:28:16.573Z,16.90
2018-06-22T19:30:44.595Z,16.80
2018-06-22T19:33:12.603Z,16.70
2018-06-22T19:35:40.597Z,16.70
2018-06-22T19:38:08.645Z,16.70
2018-06-22T19:40:37.487Z,16.70
2018-06-22T19:45:38.777Z,16.70
2018-06-22T19:48:12.247Z,16.70
2018-06-22T19:50:45.640Z,16.60
2018-06-22T19:53:19.036Z,16.60
2018-06-22T19:55:47.096Z,16.50
2018-06-22T19:58:15.208Z,16.50
2018-06-22T20:00:43.278Z,16.50
2018-06-22T20:05:39.156Z,16.40
2018-06-22T20:08:07.156Z,16.30
2018-06-22T20:10:35.250Z,16.30
2018-06-22T20:13:03.284Z,16.20
2018-06-22T20:17:59.199Z,16.10
2018-06-22T20:20:27.369Z,16.10
2018-06-22T20:22:55.409Z,16.10
2018-06-22T20:25:28.867Z,16.20
2018-06-22T20:27:56.925Z,16.10
2018-06-22T20:30:24.938Z,16.10
2018-06-22T20:32:52.969Z,16.00
2018-06-22T20:35:26.583Z,15.90
2018-06-22T20:38:00.376Z,15.90
2018-06-22T20:40:33.829Z,15.90
2018-06-22T20:43:06.103Z,15.90
2018-06-22T20:45:43.411Z,15.90
2018-06-22T20:48:16.994Z,15.90
2018-06-22T20:50:44.984Z,15.90
2018-06-22T20:53:12.983Z,15.80
2018-06-22T20:55:41.007Z,15.70
2018-06-22T20:58:09.020Z,15.70
2018-06-22T21:00:37.055Z,15.70
2018-06-22T21:03:05.220Z,15.70
2018-06-22T21:05:33.252Z,15.60
2018-06-22T21:08:01.279Z,15.60
2018-06-22T21:10:29.344Z,15.60
2018-06-22T21:12:57.632Z,15.50
2018-06-22T21:15:25.452Z,15.50
2018-06-22T21:17:53.447Z,15.60
2018-06-22T21:20:21.440Z,15.60
2018-06-22T21:22:49.460Z,15.50
2018-06-22T21:25:17.488Z,15.50
2018-06-22T21:27:51.131Z,15.50
2018-06-22T21:30:24.639Z,15.60
2018-06-22T21:32:57.994Z,15.60
2018-06-22T21:35:31.516Z,15.50
2018-06-22T21:38:04.837Z,15.50
2018-06-22T21:40:32.876Z,15.50
2018-06-22T21:43:00.888Z,15.50
2018-06-22T21:45:28.888Z,15.50
2018-06-22T21:47:56.984Z,15.50
2018-06-22T21:50:25.008Z,15.50
2018-06-22T21:52:52.995Z,15.50
2018-06-22T21:55:21.008Z,15.40
2018-06-22T21:57:48.999Z,15.40
2018-06-22T22:00:25.896Z,15.40
2018-06-22T22:02:54.187Z,15.50
2018-06-22T22:05:22.252Z,15.40
2018-06-22T22:07:50.271Z,15.50
2018-06-22T22:10:22.565Z,15.50
2018-06-22T22:12:50.565Z,15.40
2018-06-22T22:15:18.616Z,15.30
2018-06-22T22:17:46.603Z,15.30
2018-06-22T22:20:14.635Z,15.30
2018-06-22T22:22:42.667Z,15.20
2018-06-22T22:25:10.678Z,15.20
2018-06-22T22:27:38.728Z,15.10
2018-06-22T22:30:06.740Z,15.00
2018-06-22T22:32:34.816Z,15.00
2018-06-22T22:37:30.743Z,14.90
2018-06-22T22:39:58.808Z,14.90
2018-06-22T22:42:26.883Z,14.90
2018-06-22T22:44:55.056Z,14.90
2018-06-22T22:47:23.128Z,14.90
2018-06-22T22:49:51.106Z,14.90
2018-06-22T22:52:19.108Z,14.90
2018-06-22T22:54:47.238Z,14.80
2018-06-22T22:57:15.492Z,14.80
2018-06-22T22:59:43.548Z,14.80
2018-06-22T23:02:11.556Z,14.60
2018-06-22T23:04:39.624Z,14.60
2018-06-22T23:07:07.599Z,14.50
2018-06-22T23:09:35.665Z,14.50
2018-06-22T23:12:03.640Z,14.50
2018-06-22T23:14:31.668Z,14.40
2018-06-22T23:16:59.680Z,14.40
2018-06-22T23:19:27.656Z,14.40
2018-06-22T23:21:55.669Z,14.40
2018-06-22T23:24:23.728Z,14.50
2018-06-22T23:26:51.943Z,14.40
2018-06-22T23:29:19.935Z,14.40
2018-06-22T23:31:48.024Z,14.40
2018-06-22T23:34:16.084Z,14.30
2018-06-22T23:36:44.144Z,14.20
2018-06-22T23:39:12.225Z,14.10
2018-06-22T23:41:40.232Z,14.00
2018-06-22T23:44:08.252Z,14.00
2018-06-22T23:46:36.240Z,14.00
2018-06-22T23:49:04.232Z,14.00
2018-06-22T23:51:32.371Z,14.00
2018-06-22T23:54:00.381Z,13.90
2018-06-22T23:56:28.441Z,13.80
2018-06-22T23:58:56.470Z,13.90
